Time,TemperatureF,DewpointF,PressureIn,WindDirection,WindDirectionDegrees,WindSpeedMPH,WindSpeedGustMPH,Humidity,HourlyPrecipIn,Conditions,Clouds,dailyrainin,SoftwareType,DateUTC
2013-02-20 00:02:00,34.3,16.1,30.12,WSW,247,0.0,0.0,47,0.00,,,0.00,WUHU21623XXSP,2013-02-20 05:02:00,
2013-02-20 00:07:00,34.3,16.6,30.13,WSW,247,0.0,0.0,48,0.00,,,0.00,WUHU21623XXSP,2013-02-20 05:07:00,
2013-02-20 00:12:00,34.3,16.6,30.13,WSW,247,0.0,0.0,48,0.00,,,0.00,WUHU21623XXSP,2013-02-20 05:12:00,
2013-02-20 00:18:00,34.3,16.6,30.13,WSW,247,0.0,0.0,48,0.00,,,0.00,WUHU21623XXSP,2013-02-20 05:18:00,
2013-02-20 00:23:00,34.3,16.6,30.13,WSW,247,0.0,0.0,48,0.00,,,0.00,WUHU21623XXSP,2013-02-20 05:23:00,
2013-02-20 00:28:00,34.0,16.2,30.13,WSW,247,0.0,0.0,48,0.00,,,0.00,WUHU21623XXSP,2013-02-20 05:28:00,
2013-02-20 00:33:00,33.6,15.9,30.13,WSW,247,0.0,0.0,48,0.00,,,0.00,WUHU21623XXSP,2013-02-20 05:33:00,
2013-02-20 00:38:00,33.6,16.4,30.13,WSW,247,0.0,0.0,49,0.00,,,0.00,WUHU21623XXSP,2013-02-20 05:38:00,
2013-02-20 00:43:00,33.3,16.1,30.12,WSW,247,0.0,0.0,49,0.00,,,0.00,WUHU21623XXSP,2013-02-20 05:43:00,
2013-02-20 00:48:00,33.1,15.9,30.13,WSW,247,0.0,0.0,49,0.00,,,0.00,WUHU21623XXSP,2013-02-20 05:48:00,
2013-02-20 00:53:00,32.9,15.7,30.12,WSW,247,0.0,0.0,49,0.00,,,0.00,WUHU21623XXSP,2013-02-20 05:53:00,
2013-02-20 00:58:00,32.7,15.6,30.12,WSW,247,0.0,0.0,49,0.00,,,0.00,WUHU21623XXSP,2013-02-20 05:58:00,
2013-02-20 01:03:00,32.7,16.1,30.12,WSW,247,0.0,0.0,50,0.00,,,0.00,WUHU21623XXSP,2013-02-20 06:03:00,
2013-02-20 01:08:00,32.5,16.1,30.12,WSW,247,0.0,0.0,50,0.00,,,0.00,WUHU21623XXSP,2013-02-20 06:08:00,
2013-02-20 01:13:00,32.5,15.9,30.12,WSW,247,0.0,0.0,50,0.00,,,0.00,WUHU21623XXSP,2013-02-20 06:13:00,
2013-02-20 01:18:00,32.4,15.8,30.12,WSW,247,0.0,0.0,50,0.00,,,0.00,WUHU21623XXSP,2013-02-20 06:18:00,
2013-02-20 01:23:00,32.2,15.1,30.13,WSW,247,0.0,0.0,49,0.00,,,0.00,WUHU21623XXSP,2013-02-20 06:23:00,
2013-02-20 01:28:00,32.2,15.1,30.13,WSW,247,0.0,0.0,49,0.00,,,0.00,WUHU21623XXSP,2013-02-20 06:28:00,
2013-02-20 01:33:00,32.2,15.6,30.13,WSW,247,0.0,0.0,50,0.00,,,0.00,WUHU21623XXSP,2013-02-20 06:33:00,
2013-02-20 01:38:00,32.0,15.4,30.13,WSW,247,0.0,0.0,50,0.00,,,0.00,WUHU21623XXSP,2013-02-20 06:38:00,
2013-02-20 01:43:00,32.0,15.4,30.13,WSW,247,0.0,0.0,50,0.00,,,0.00,WUHU21623XXSP,2013-02-20 06:43:00,
2013-02-20 01:48:00,31.8,15.3,30.13,WSW,247,0.0,0.0,50,0.00,,,0.00,WUHU21623XXSP,2013-02-20 06:48:00,
2013-02-20 01:53:00,31.8,15.3,30.13,WSW,247,6.5,6.5,50,0.00,,,0.00,WUHU21623XXSP,2013-02-20 06:53:00,
2013-02-20 01:58:00,31.8,15.3,30.13,WSW,247,0.0,6.5,51,0.00,,,0.00,WUHU21623XXSP,2013-02-20 06:58:00,
2013-02-20 02:03:00,31.8,15.7,30.13,WSW,247,0.0,0.0,50,0.00,,,0.00,WUHU21623XXSP,2013-02-20 07:03:00,
2013-02-20 02:08:00,31.8,15.7,30.14,WSW,247,0.0,0.0,51,0.00,,,0.00,WUHU21623XXSP,2013-02-20 07:08:00,
2013-02-20 02:13:00,31.6,15.5,30.14,WSW,247,0.0,0.0,51,0.00,,,0.00,WUHU21623XXSP,2013-02-20 07:13:00,
2013-02-20 02:18:00,31.6,15.5,30.13,WSW,247,0.0,0.0,51,0.00,,,0.00,WUHU21623XXSP,2013-02-20 07:18:00,
2013-02-20 02:23:00,31.5,15.4,30.13,WSW,247,0.0,0.0,51,0.00,,,0.00,WUHU21623XXSP,2013-02-20 07:23:00,
2013-02-20 02:28:00,31.3,15.2,30.13,WSW,247,0.0,0.0,51,0.00,,,0.00,WUHU21623XXSP,2013-02-20 07:28:00,
2013-02-20 02:33:00,31.3,15.2,30.13,WSW,247,0.0,0.0,51,0.00,,,0.00,WUHU21623XXSP,2013-02-20 07:33:00,
2013-02-20 02:38:00,31.1,15.0,30.13,WSW,247,0.0,0.0,51,0.00,,,0.00,WUHU21623XXSP,2013-02-20 07:38:00,
2013-02-20 02:43:00,30.9,14.9,30.13,WSW,247,0.0,0.0,51,0.00,,,0.00,WUHU21623XXSP,2013-02-20 07:43:00,
2013-02-20 02:48:00,30.9,14.9,30.13,WSW,247,0.0,0.0,51,0.00,,,0.00,WUHU21623XXSP,2013-02-20 07:48:00,
2013-02-20 02:53:00,30.7,14.7,30.13,WSW,247,0.0,0.0,51,0.00,,,0.00,WUHU21623XXSP,2013-02-20 07:53:00,
2013-02-20 02:58:00,30.7,14.7,30.12,WSW,247,0.0,0.0,51,0.00,,,0.00,WUHU21623XXSP,2013-02-20 07:58:00,
2013-02-20 03:05:00,30.6,14.6,30.13,WSW,247,0.0,0.0,52,0.00,,,0.00,WUHU21623XXSP,2013-02-20 08:05:00,
2013-02-20 03:10:00,30.4,14.8,30.13,WSW,247,0.0,0.0,52,0.00,,,0.00,WUHU21623XXSP,2013-02-20 08:10:00,
2013-02-20 03:15:00,30.2,14.6,30.13,WSW,247,0.0,0.0,52,0.00,,,0.00,WUHU21623XXSP,2013-02-20 08:15:00,
2013-02-20 03:20:00,30.2,14.6,30.13,WSW,247,0.0,0.0,52,0.00,,,0.00,WUHU21623XXSP,2013-02-20 08:20:00,
2013-02-20 03:25:00,30.2,14.6,30.13,WSW,247,0.0,0.0,52,0.00,,,0.00,WUHU21623XXSP,2013-02-20 08:25:00,
2013-02-20 03:30:00,30.0,14.5,30.14,WSW,247,0.0,0.0,52,0.00,,,0.00,WUHU21623XXSP,2013-02-20 08:30:00,
2013-02-20 03:35:00,30.0,14.5,30.13,WSW,247,0.0,0.0,52,0.00,,,0.00,WUHU21623XXSP,2013-02-20 08:35:00,
2013-02-20 03:40:00,30.0,14.5,30.13,WSW,247,0.0,0.0,52,0.00,,,0.00,WUHU21623XXSP,2013-02-20 08:40:00,
2013-02-20 03:45:00,30.0,14.5,30.12,WSW,247,0.0,0.0,52,0.00,,,0.00,WUHU21623XXSP,2013-02-20 08:45:00,
2013-02-20 03:50:00,30.0,14.5,30.12,WSW,247,0.0,0.0,52,0.00,,,0.00,WUHU21623XXSP,2013-02-20 08:50:00,
2013-02-20 03:55:00,30.0,14.5,30.12,WSW,247,0.0,0.0,52,0.00,,,0.00,WUHU21623XXSP,2013-02-20 08:55:00,
2013-02-20 04:00:00,30.0,14.5,30.12,WSW,247,0.0,0.0,52,0.00,,,0.00,WUHU21623XXSP,2013-02-20 09:00:00,
2013-02-20 04:05:00,30.0,14.5,30.12,WSW,247,0.0,0.0,52,0.00,,,0.00,WUHU21623XXSP,2013-02-20 09:05:00,
2013-02-20 04:10:00,30.0,14.9,30.11,WSW,247,0.0,0.0,53,0.00,,,0.00,WUHU21623XXSP,2013-02-20 09:10:00,
2013-02-20 04:15:00,30.0,14.9,30.11,WSW,247,0.0,0.0,53,0.00,,,0.00,WUHU21623XXSP,2013-02-20 09:15:00,
2013-02-20 04:20:00,30.0,15.3,30.11,WSW,247,0.0,0.0,54,0.00,,,0.00,WUHU21623XXSP,2013-02-20 09:20:00,
2013-02-20 04:25:00,29.8,15.2,30.11,WSW,247,0.0,0.0,54,0.00,,,0.00,WUHU21623XXSP,2013-02-20 09:25:00,
2013-02-20 04:30:00,29.8,15.2,30.11,WSW,247,0.0,0.0,54,0.00,,,0.00,WUHU21623XXSP,2013-02-20 09:30:00,
2013-02-20 04:35:00,29.5,14.8,30.12,WSW,247,0.0,0.0,54,0.00,,,0.00,WUHU21623XXSP,2013-02-20 09:35:00,
2013-02-20 04:40:00,29.1,14.7,30.12,WSW,247,0.0,0.0,54,0.00,,,0.00,WUHU21623XXSP,2013-02-20 09:40:00,
2013-02-20 04:45:00,29.1,14.9,30.12,WSW,247,0.0,0.0,55,0.00,,,0.00,WUHU21623XXSP,2013-02-20 09:45:00,
2013-02-20 04:50:00,29.1,14.9,30.12,WSW,247,0.0,0.0,55,0.00,,,0.00,WUHU21623XXSP,2013-02-20 09:50:00,
2013-02-20 04:55:00,29.1,14.9,30.12,WSW,247,0.0,0.0,55,0.00,,,0.00,WUHU21623XXSP,2013-02-20 09:55:00,
2013-02-20 05:00:00,28.9,14.8,30.11,WSW,247,0.0,0.0,55,0.00,,,0.00,WUHU21623XXSP,2013-02-20 10:00:00,
2013-02-20 05:05:00,28.9,14.8,30.11,WSW,247,0.0,0.0,55,0.00,,,0.00,WUHU21623XXSP,2013-02-20 10:05:00,
2013-02-20 05:10:00,28.9,14.8,30.11,WSW,247,0.0,0.0,55,0.00,,,0.00,WUHU21623XXSP,2013-02-20 10:10:00,
2013-02-20 05:15:00,28.9,14.8,30.11,WSW,247,0.0,0.0,55,0.00,,,0.00,WUHU21623XXSP,2013-02-20 10:15:00,
2013-02-20 05:20:00,28.8,14.6,30.11,WSW,247,0.0,0.0,55,0.00,,,0.00,WUHU21623XXSP,2013-02-20 10:20:00,
2013-02-20 05:25:00,28.8,14.6,30.12,WSW,247,0.0,0.0,55,0.00,,,0.00,WUHU21623XXSP,2013-02-20 10:25:00,
2013-02-20 05:30:00,28.6,15.0,30.12,WSW,247,0.0,0.0,56,0.00,,,0.00,WUHU21623XXSP,2013-02-20 10:30:00,
2013-02-20 05:35:00,28.6,14.8,30.12,WSW,247,0.0,0.0,56,0.00,,,0.00,WUHU21623XXSP,2013-02-20 10:35:00,
2013-02-20 05:41:00,28.2,14.5,30.12,WSW,247,0.0,0.0,56,0.00,,,0.00,WUHU21623XXSP,2013-02-20 10:41:00,
2013-02-20 05:46:00,28.2,14.5,30.12,WSW,247,0.0,0.0,56,0.00,,,0.00,WUHU21623XXSP,2013-02-20 10:46:00,
2013-02-20 05:51:00,28.2,14.5,30.12,WSW,247,0.0,0.0,56,0.00,,,0.00,WUHU21623XXSP,2013-02-20 10:51:00,
2013-02-20 05:56:00,28.2,14.5,30.12,WSW,247,0.0,0.0,56,0.00,,,0.00,WUHU21623XXSP,2013-02-20 10:56:00,
2013-02-20 06:01:00,28.2,14.5,30.12,WSW,247,0.0,0.0,56,0.00,,,0.00,WUHU21623XXSP,2013-02-20 11:01:00,
2013-02-20 06:06:00,28.2,14.1,30.12,WSW,247,0.0,0.0,56,0.00,,,0.00,WUHU21623XXSP,2013-02-20 11:06:00,
2013-02-20 06:11:00,28.2,14.5,30.12,WSW,247,0.0,0.0,56,0.00,,,0.00,WUHU21623XXSP,2013-02-20 11:11:00,
2013-02-20 06:16:00,28.2,14.5,30.11,WSW,247,0.0,0.0,56,0.00,,,0.00,WUHU21623XXSP,2013-02-20 11:16:00,
2013-02-20 06:21:00,28.0,14.7,30.12,WSW,247,0.0,0.0,57,0.00,,,0.00,WUHU21623XXSP,2013-02-20 11:21:00,
2013-02-20 06:26:00,28.0,14.7,30.11,WSW,247,0.0,0.0,57,0.00,,,0.00,WUHU21623XXSP,2013-02-20 11:26:00,
2013-02-20 06:32:00,27.5,14.4,30.12,WSW,247,0.0,0.0,57,0.00,,,0.00,WUHU21623XXSP,2013-02-20 11:32:00,
2013-02-20 06:37:00,27.3,14.6,30.12,WSW,247,0.0,0.0,58,0.00,,,0.00,WUHU21623XXSP,2013-02-20 11:37:00,
2013-02-20 06:42:00,27.1,14.4,30.12,WSW,247,0.0,0.0,58,0.00,,,0.00,WUHU21623XXSP,2013-02-20 11:42:00,
2013-02-20 06:47:00,27.1,14.3,30.11,WSW,247,0.0,0.0,58,0.00,,,0.00,WUHU21623XXSP,2013-02-20 11:47:00,
2013-02-20 06:52:00,27.1,14.3,30.11,WSW,247,0.0,0.0,58,0.00,,,0.00,WUHU21623XXSP,2013-02-20 11:52:00,
2013-02-20 06:57:00,27.0,14.1,30.11,WSW,247,0.0,0.0,58,0.00,,,0.00,WUHU21623XXSP,2013-02-20 11:57:00,
2013-02-20 07:02:00,26.8,13.9,30.11,WSW,247,0.0,0.0,59,0.00,,,0.00,WUHU21623XXSP,2013-02-20 12:02:00,
2013-02-20 07:07:00,26.8,14.3,30.11,WSW,247,0.0,0.0,59,0.00,,,0.00,WUHU21623XXSP,2013-02-20 12:07:00,
2013-02-20 07:14:00,26.6,14.3,30.12,WSW,247,0.0,0.0,59,0.00,,,0.00,WUHU21623XXSP,2013-02-20 12:14:00,
2013-02-20 07:19:00,26.4,14.0,30.12,WSW,247,0.0,0.0,59,0.00,,,0.00,WUHU21623XXSP,2013-02-20 12:19:00,
2013-02-20 07:25:00,26.4,14.0,30.12,WSW,247,0.0,0.0,59,0.00,,,0.00,WUHU21623XXSP,2013-02-20 12:25:00,
2013-02-20 07:30:00,26.4,14.4,30.12,WSW,247,0.0,0.0,60,0.00,,,0.00,WUHU21623XXSP,2013-02-20 12:30:00,
2013-02-20 07:35:00,26.4,14.4,30.12,WSW,247,0.0,0.0,60,0.00,,,0.00,WUHU21623XXSP,2013-02-20 12:35:00,
2013-02-20 07:40:00,26.4,14.4,30.12,WSW,247,0.0,0.0,60,0.00,,,0.00,WUHU21623XXSP,2013-02-20 12:40:00,
2013-02-20 07:45:00,26.8,14.7,30.12,WSW,247,0.0,0.0,60,0.00,,,0.00,WUHU21623XXSP,2013-02-20 12:45:00,
2013-02-20 07:50:00,26.8,14.7,30.13,WSW,247,0.0,0.0,60,0.00,,,0.00,WUHU21623XXSP,2013-02-20 12:50:00,
2013-02-20 07:55:00,27.1,14.9,30.13,WSW,247,0.0,0.0,60,0.00,,,0.00,WUHU21623XXSP,2013-02-20 12:55:00,
2013-02-20 08:00:00,27.5,15.3,30.14,WSW,247,0.0,0.0,60,0.00,,,0.00,WUHU21623XXSP,2013-02-20 13:00:00,
2013-02-20 08:06:00,27.7,15.6,30.13,WSW,247,0.0,0.0,60,0.00,,,0.00,WUHU21623XXSP,2013-02-20 13:06:00,
2013-02-20 08:11:00,28.2,15.6,30.13,WSW,247,0.0,0.0,60,0.00,,,0.00,WUHU21623XXSP,2013-02-20 13:11:00,
2013-02-20 08:16:00,28.6,16.5,30.14,WSW,247,0.0,0.0,60,0.00,,,0.00,WUHU21623XXSP,2013-02-20 13:16:00,
2013-02-20 08:21:00,29.1,17.0,30.14,WSW,247,0.0,0.0,60,0.00,,,0.00,WUHU21623XXSP,2013-02-20 13:21:00,
2013-02-20 08:26:00,29.5,17.1,30.14,WSW,247,0.0,0.0,60,0.00,,,0.00,WUHU21623XXSP,2013-02-20 13:26:00,
2013-02-20 08:31:00,30.0,18.2,30.14,WSW,247,0.0,0.0,61,0.00,,,0.00,WUHU21623XXSP,2013-02-20 13:31:00,
2013-02-20 08:36:00,30.7,18.3,30.15,WSW,247,0.0,0.0,60,0.00,,,0.00,WUHU21623XXSP,2013-02-20 13:36:00,
2013-02-20 08:41:00,31.3,19.4,30.15,WSW,247,0.0,0.0,61,0.00,,,0.00,WUHU21623XXSP,2013-02-20 13:41:00,
2013-02-20 08:47:00,32.2,20.3,30.15,WSW,247,0.0,0.0,61,0.00,,,0.00,WUHU21623XXSP,2013-02-20 13:47:00,
2013-02-20 08:52:00,32.5,20.2,30.14,WSW,247,0.0,0.0,60,0.00,,,0.00,WUHU21623XXSP,2013-02-20 13:52:00,
2013-02-20 08:57:00,33.3,20.5,30.14,WSW,247,0.0,0.0,59,0.00,,,0.00,WUHU21623XXSP,2013-02-20 13:57:00,
2013-02-20 09:02:00,33.6,19.9,30.15,WSW,247,0.0,0.0,57,0.00,,,0.00,WUHU21623XXSP,2013-02-20 14:02:00,
2013-02-20 09:08:00,33.8,19.9,30.15,WSW,247,0.0,0.0,56,0.00,,,0.00,WUHU21623XXSP,2013-02-20 14:08:00,
2013-02-20 09:13:00,34.3,20.2,30.15,WSW,247,0.0,0.0,56,0.00,,,0.00,WUHU21623XXSP,2013-02-20 14:13:00,
2013-02-20 09:18:00,34.9,20.3,30.15,WSW,247,0.0,0.0,55,0.00,,,0.00,WUHU21623XXSP,2013-02-20 14:18:00,
2013-02-20 09:23:00,35.2,20.7,30.15,WSW,247,0.0,0.0,55,0.00,,,0.00,WUHU21623XXSP,2013-02-20 14:23:00,
2013-02-20 09:28:00,35.8,20.8,30.15,WSW,247,0.0,0.0,54,0.00,,,0.00,WUHU21623XXSP,2013-02-20 14:28:00,
2013-02-20 09:33:00,36.1,20.9,30.15,WSW,247,0.0,0.0,54,0.00,,,0.00,WUHU21623XXSP,2013-02-20 14:33:00,
2013-02-20 09:39:00,36.7,21.1,30.15,WSW,247,0.0,0.0,53,0.00,,,0.00,WUHU21623XXSP,2013-02-20 14:39:00,
2013-02-20 09:44:00,37.2,20.8,30.15,WSW,247,0.0,0.0,51,0.00,,,0.00,WUHU21623XXSP,2013-02-20 14:44:00,
2013-02-20 09:49:00,37.6,21.1,30.15,WSW,247,0.0,0.0,51,0.00,,,0.00,WUHU21623XXSP,2013-02-20 14:49:00,
2013-02-20 09:54:00,38.3,21.3,30.15,WSW,247,0.0,0.0,50,0.00,,,0.00,WUHU21623XXSP,2013-02-20 14:54:00,
2013-02-20 09:59:00,38.8,21.1,30.15,WSW,247,0.0,0.0,49,0.00,,,0.00,WUHU21623XXSP,2013-02-20 14:59:00,
2013-02-20 10:04:00,39.4,20.2,30.15,WSW,247,0.0,0.0,46,0.00,,,0.00,WUHU21623XXSP,2013-02-20 15:04:00,
2013-02-20 10:09:00,39.9,20.7,30.15,WSW,247,0.0,0.0,46,0.00,,,0.00,WUHU21623XXSP,2013-02-20 15:09:00,
2013-02-20 10:14:00,40.3,20.5,30.15,WSW,247,0.0,0.0,45,0.00,,,0.00,WUHU21623XXSP,2013-02-20 15:14:00,
2013-02-20 10:19:00,40.8,20.4,30.15,WSW,247,0.0,0.0,44,0.00,,,0.00,WUHU21623XXSP,2013-02-20 15:19:00,
2013-02-20 10:24:00,41.4,20.6,30.15,WSW,247,0.0,0.0,44,0.00,,,0.00,WUHU21623XXSP,2013-02-20 15:24:00,
2013-02-20 10:29:00,42.6,21.0,30.15,WSW,247,0.0,0.0,42,0.00,,,0.00,WUHU21623XXSP,2013-02-20 15:29:00,
2013-02-20 10:34:00,43.5,21.3,30.15,WSW,247,0.0,0.0,41,0.00,,,0.00,WUHU21623XXSP,2013-02-20 15:34:00,
2013-02-20 10:39:00,44.4,21.6,30.15,WSW,247,0.0,0.0,40,0.00,,,0.00,WUHU21623XXSP,2013-02-20 15:39:00,
2013-02-20 10:44:00,45.1,20.9,30.15,WSW,247,0.0,0.0,38,0.00,,,0.00,WUHU21623XXSP,2013-02-20 15:44:00,
2013-02-20 10:49:00,46.0,21.7,30.15,WSW,247,0.0,0.0,38,0.00,,,0.00,WUHU21623XXSP,2013-02-20 15:49:00,
2013-02-20 10:54:00,46.6,21.2,30.14,WSW,247,0.0,0.0,37,0.00,,,0.00,WUHU21623XXSP,2013-02-20 15:54:00,
2013-02-20 10:59:00,46.9,21.0,30.14,WSW,247,0.0,0.0,36,0.00,,,0.00,WUHU21623XXSP,2013-02-20 15:59:00,
2013-02-20 11:04:00,47.1,21.3,30.13,WSW,247,0.0,0.0,36,0.00,,,0.00,WUHU21623XXSP,2013-02-20 16:04:00,
2013-02-20 11:10:00,47.8,21.3,30.14,WSW,247,0.0,0.0,35,0.00,,,0.00,WUHU21623XXSP,2013-02-20 16:10:00,
2013-02-20 11:15:00,48.2,21.5,30.14,WSW,247,0.0,0.0,34,0.00,,,0.00,WUHU21623XXSP,2013-02-20 16:15:00,
2013-02-20 11:20:00,48.6,21.3,30.14,WSW,247,0.0,0.0,34,0.00,,,0.00,WUHU21623XXSP,2013-02-20 16:20:00,
2013-02-20 11:25:00,49.3,21.2,30.14,WSW,247,0.0,7.4,33,0.00,,,0.00,WUHU21623XXSP,2013-02-20 16:25:00,
2013-02-20 11:30:00,49.8,21.6,30.14,WSW,247,0.0,7.4,33,0.00,,,0.00,WUHU21623XXSP,2013-02-20 16:30:00,
2013-02-20 11:35:00,50.4,22.1,30.13,WSW,247,0.0,0.0,33,0.00,,,0.00,WUHU21623XXSP,2013-02-20 16:35:00,
2013-02-20 11:40:00,51.3,21.6,30.13,West,270,0.0,0.0,31,0.00,,,0.00,WUHU21623XXSP,2013-02-20 16:40:00,
2013-02-20 11:45:00,51.1,21.4,30.13,West,270,0.0,0.0,31,0.00,,,0.00,WUHU21623XXSP,2013-02-20 16:45:00,
2013-02-20 11:51:00,51.3,21.6,30.12,West,270,0.0,0.0,31,0.00,,,0.00,WUHU21623XXSP,2013-02-20 16:51:00,
2013-02-20 11:56:00,51.4,21.7,30.12,West,270,0.0,0.0,31,0.00,,,0.00,WUHU21623XXSP,2013-02-20 16:56:00,
2013-02-20 12:01:00,51.4,21.1,30.13,West,270,0.0,0.0,30,0.00,,,0.00,WUHU21623XXSP,2013-02-20 17:01:00,
2013-02-20 12:06:00,51.4,21.1,30.13,West,270,0.0,0.0,30,0.00,,,0.00,WUHU21623XXSP,2013-02-20 17:06:00,
2013-02-20 12:11:00,51.4,21.7,30.13,West,270,0.0,0.0,30,0.00,,,0.00,WUHU21623XXSP,2013-02-20 17:11:00,
2013-02-20 12:16:00,51.1,19.8,30.13,West,270,0.0,0.0,29,0.00,,,0.00,WUHU21623XXSP,2013-02-20 17:16:00,
2013-02-20 12:21:00,51.3,18.9,30.12,West,270,0.0,0.0,28,0.00,,,0.00,WUHU21623XXSP,2013-02-20 17:21:00,
2013-02-20 12:26:00,51.3,19.0,30.12,West,270,0.0,0.0,28,0.00,,,0.00,WUHU21623XXSP,2013-02-20 17:26:00,
2013-02-20 12:31:00,51.4,20.1,30.12,West,270,0.0,0.0,29,0.00,,,0.00,WUHU21623XXSP,2013-02-20 17:31:00,
2013-02-20 12:36:00,51.3,19.0,30.12,West,270,0.0,0.0,29,0.00,,,0.00,WUHU21623XXSP,2013-02-20 17:36:00,
2013-02-20 12:41:00,51.1,18.9,30.12,WSW,247,0.0,0.0,28,0.00,,,0.00,WUHU21623XXSP,2013-02-20 17:41:00,
2013-02-20 12:46:00,50.7,18.7,30.11,WSW,247,0.0,0.0,28,0.00,,,0.00,WUHU21623XXSP,2013-02-20 17:46:00,
2013-02-20 12:51:00,50.5,19.3,30.11,WSW,247,4.5,4.5,29,0.00,,,0.00,WUHU21623XXSP,2013-02-20 17:51:00,
2013-02-20 12:56:00,50.2,18.1,30.11,WSW,247,0.0,4.5,28,0.00,,,0.00,WUHU21623XXSP,2013-02-20 17:56:00,
2013-02-20 13:01:00,49.8,17.8,30.11,WSW,247,0.0,0.0,28,0.00,,,0.00,WUHU21623XXSP,2013-02-20 18:01:00,
2013-02-20 13:06:00,49.8,18.7,30.10,WSW,247,0.0,0.0,28,0.00,,,0.00,WUHU21623XXSP,2013-02-20 18:06:00,
2013-02-20 13:11:00,49.8,17.8,30.10,WSW,247,0.0,0.0,28,0.00,,,0.00,WUHU21623XXSP,2013-02-20 18:11:00,
2013-02-20 13:16:00,49.8,16.8,30.09,WSW,247,0.0,0.0,27,0.00,,,0.00,WUHU21623XXSP,2013-02-20 18:16:00,
2013-02-20 13:21:00,50.4,17.3,30.09,WSW,247,0.0,0.0,27,0.00,,,0.00,WUHU21623XXSP,2013-02-20 18:21:00,
2013-02-20 13:26:00,50.7,17.6,30.09,SW,225,0.0,0.0,27,0.00,,,0.00,WUHU21623XXSP,2013-02-20 18:26:00,
2013-02-20 13:32:00,51.1,17.9,30.09,WSW,247,0.0,2.9,27,0.00,,,0.00,WUHU21623XXSP,2013-02-20 18:32:00,
2013-02-20 13:37:00,50.7,17.8,30.09,WSW,247,0.0,2.9,27,0.00,,,0.00,WUHU21623XXSP,2013-02-20 18:37:00,
2013-02-20 13:42:00,50.5,18.4,30.09,WSW,247,0.0,0.0,28,0.00,,,0.00,WUHU21623XXSP,2013-02-20 18:42:00,
2013-02-20 13:47:00,50.4,18.2,30.10,WSW,247,0.0,0.0,28,0.00,,,0.00,WUHU21623XXSP,2013-02-20 18:47:00,
2013-02-20 13:52:00,49.8,18.1,30.10,WSW,247,0.0,0.0,28,0.00,,,0.00,WUHU21623XXSP,2013-02-20 18:52:00,
2013-02-20 13:57:00,49.3,17.3,30.10,WSW,247,0.0,2.7,28,0.00,,,0.00,WUHU21623XXSP,2013-02-20 18:57:00,
2013-02-20 14:02:00,48.9,17.0,30.10,SW,225,3.4,3.4,28,0.00,,,0.00,WUHU21623XXSP,2013-02-20 19:02:00,
2013-02-20 14:07:00,48.9,17.0,30.10,WSW,247,0.0,3.4,28,0.00,,,0.00,WUHU21623XXSP,2013-02-20 19:07:00,
2013-02-20 14:12:00,48.9,17.0,30.10,WSW,247,0.0,0.0,28,0.00,,,0.00,WUHU21623XXSP,2013-02-20 19:12:00,
2013-02-20 14:17:00,48.7,16.9,30.10,North,0,0.0,3.6,28,0.00,,,0.00,WUHU21623XXSP,2013-02-20 19:17:00,
2013-02-20 14:22:00,48.9,17.0,30.09,WSW,247,0.0,3.6,28,0.00,,,0.00,WUHU21623XXSP,2013-02-20 19:22:00,
2013-02-20 14:27:00,49.1,18.1,30.09,WSW,247,0.0,0.0,29,0.00,,,0.00,WUHU21623XXSP,2013-02-20 19:27:00,
2013-02-20 14:32:00,49.3,18.2,30.10,WSW,247,0.0,0.0,29,0.00,,,0.00,WUHU21623XXSP,2013-02-20 19:32:00,
2013-02-20 14:37:00,49.1,17.2,30.10,WSW,247,0.0,0.0,28,0.00,,,0.00,WUHU21623XXSP,2013-02-20 19:37:00,
2013-02-20 14:42:00,49.1,18.1,30.10,WSW,247,0.0,0.0,29,0.00,,,0.00,WUHU21623XXSP,2013-02-20 19:42:00,
2013-02-20 14:47:00,49.3,18.2,30.10,WSW,247,0.0,0.0,29,0.00,,,0.00,WUHU21623XXSP,2013-02-20 19:47:00,
2013-02-20 14:52:00,49.1,17.2,30.10,WSW,247,5.4,5.4,28,0.00,,,0.00,WUHU21623XXSP,2013-02-20 19:52:00,
2013-02-20 14:57:00,48.7,17.8,30.10,WSW,247,0.0,5.4,29,0.00,,,0.00,WUHU21623XXSP,2013-02-20 19:57:00,
2013-02-20 15:02:00,48.6,18.6,30.11,WSW,247,0.0,0.0,30,0.00,,,0.00,WUHU21623XXSP,2013-02-20 20:02:00,
2013-02-20 15:07:00,48.4,18.5,30.11,WSW,247,0.0,0.0,30,0.00,,,0.00,WUHU21623XXSP,2013-02-20 20:07:00,
2013-02-20 15:12:00,48.0,17.4,30.10,WSW,247,0.0,0.0,29,0.00,,,0.00,WUHU21623XXSP,2013-02-20 20:12:00,
2013-02-20 15:17:00,47.1,16.4,30.10,WNW,292,0.0,6.3,29,0.00,,,0.00,WUHU21623XXSP,2013-02-20 20:17:00,
2013-02-20 15:22:00,46.6,16.1,30.11,WNW,292,2.5,2.5,29,0.00,,,0.00,WUHU21623XXSP,2013-02-20 20:22:00,
2013-02-20 15:27:00,46.0,16.4,30.11,West,270,0.0,2.5,30,0.00,,,0.00,WUHU21623XXSP,2013-02-20 20:27:00,
2013-02-20 15:32:00,45.7,16.1,30.11,West,270,1.6,1.6,30,0.00,,,0.00,WUHU21623XXSP,2013-02-20 20:32:00,
2013-02-20 15:37:00,45.5,16.1,30.11,West,270,1.6,1.6,30,0.00,,,0.00,WUHU21623XXSP,2013-02-20 20:37:00,
2013-02-20 15:42:00,44.8,15.2,30.11,West,270,0.0,1.6,30,0.00,,,0.00,WUHU21623XXSP,2013-02-20 20:42:00,
2013-02-20 15:47:00,44.2,15.4,30.11,West,270,0.0,0.0,31,0.00,,,0.00,WUHU21623XXSP,2013-02-20 20:47:00,
2013-02-20 15:52:00,43.7,14.9,30.11,WSW,247,0.0,0.0,31,0.00,,,0.00,WUHU21623XXSP,2013-02-20 20:52:00,
2013-02-20 15:57:00,43.0,15.0,30.11,WSW,247,0.0,0.0,32,0.00,,,0.00,WUHU21623XXSP,2013-02-20 20:57:00,
2013-02-20 16:03:00,42.6,14.6,30.11,WSW,247,0.0,0.0,32,0.00,,,0.00,WUHU21623XXSP,2013-02-20 21:03:00,
2013-02-20 16:08:00,42.6,14.6,30.11,WSW,247,0.0,0.0,32,0.00,,,0.00,WUHU21623XXSP,2013-02-20 21:08:00,
2013-02-20 16:13:00,42.6,15.3,30.11,WSW,247,0.0,0.0,33,0.00,,,0.00,WUHU21623XXSP,2013-02-20 21:13:00,
2013-02-20 16:18:00,42.4,15.2,30.12,WSW,247,0.0,0.0,33,0.00,,,0.00,WUHU21623XXSP,2013-02-20 21:18:00,
2013-02-20 16:23:00,42.1,14.8,30.12,WSW,247,0.0,0.0,33,0.00,,,0.00,WUHU21623XXSP,2013-02-20 21:23:00,
2013-02-20 16:28:00,41.9,14.7,30.12,WSW,247,0.0,4.0,33,0.00,,,0.00,WUHU21623XXSP,2013-02-20 21:28:00,
2013-02-20 16:33:00,41.5,14.4,30.12,WSW,247,0.0,4.0,33,0.00,,,0.00,WUHU21623XXSP,2013-02-20 21:33:00,
2013-02-20 16:38:00,41.5,14.4,30.12,WSW,247,0.0,0.0,33,0.00,,,0.00,WUHU21623XXSP,2013-02-20 21:38:00,
2013-02-20 16:43:00,41.4,14.9,30.12,WSW,247,0.0,0.0,34,0.00,,,0.00,WUHU21623XXSP,2013-02-20 21:43:00,
2013-02-20 16:48:00,41.2,14.8,30.13,WSW,247,0.0,0.0,34,0.00,,,0.00,WUHU21623XXSP,2013-02-20 21:48:00,
2013-02-20 16:54:00,40.8,14.4,30.12,WSW,247,0.0,0.0,34,0.00,,,0.00,WUHU21623XXSP,2013-02-20 21:54:00,
2013-02-20 16:59:00,40.8,14.4,30.13,WSW,247,0.0,0.0,34,0.00,,,0.00,WUHU21623XXSP,2013-02-20 21:59:00,
2013-02-20 17:04:00,40.6,14.3,30.13,WSW,247,0.0,0.0,34,0.00,,,0.00,WUHU21623XXSP,2013-02-20 22:04:00,
2013-02-20 17:09:00,40.5,14.1,30.13,WSW,247,0.0,0.0,34,0.00,,,0.00,WUHU21623XXSP,2013-02-20 22:09:00,
2013-02-20 17:14:00,39.9,13.6,30.13,WSW,247,0.0,0.0,34,0.00,,,0.00,WUHU21623XXSP,2013-02-20 22:14:00,
2013-02-20 17:19:00,39.7,14.1,30.13,WSW,247,0.0,1.8,35,0.00,,,0.00,WUHU21623XXSP,2013-02-20 22:19:00,
2013-02-20 17:24:00,39.4,13.8,30.13,WSW,247,0.0,5.1,35,0.00,,,0.00,WUHU21623XXSP,2013-02-20 22:24:00,
2013-02-20 17:29:00,39.0,13.5,30.13,WSW,247,0.0,5.1,35,0.00,,,0.00,WUHU21623XXSP,2013-02-20 22:29:00,
2013-02-20 17:34:00,39.0,14.1,30.13,WSW,247,4.3,4.3,36,0.00,,,0.00,WUHU21623XXSP,2013-02-20 22:34:00,
2013-02-20 17:39:00,38.8,14.0,30.13,WSW,247,0.0,4.3,36,0.00,,,0.00,WUHU21623XXSP,2013-02-20 22:39:00,
2013-02-20 17:44:00,38.5,13.8,30.13,WSW,247,0.0,0.0,36,0.00,,,0.00,WUHU21623XXSP,2013-02-20 22:44:00,
2013-02-20 17:49:00,38.5,14.3,30.13,WSW,247,0.0,0.0,37,0.00,,,0.00,WUHU21623XXSP,2013-02-20 22:49:00,
2013-02-20 17:55:00,38.3,13.5,30.12,WSW,247,0.0,0.0,36,0.00,,,0.00,WUHU21623XXSP,2013-02-20 22:55:00,
2013-02-20 18:00:00,38.1,13.3,30.12,WSW,247,0.0,0.0,36,0.00,,,0.00,WUHU21623XXSP,2013-02-20 23:00:00,
2013-02-20 18:05:00,37.9,13.8,30.11,WSW,247,0.0,0.0,37,0.00,,,0.00,WUHU21623XXSP,2013-02-20 23:05:00,
2013-02-20 18:10:00,37.6,13.6,30.11,WSW,247,0.0,0.0,37,0.00,,,0.00,WUHU21623XXSP,2013-02-20 23:10:00,
2013-02-20 18:15:00,37.2,14.1,30.12,WSW,247,0.0,0.0,38,0.00,,,0.00,WUHU21623XXSP,2013-02-20 23:15:00,
2013-02-20 18:20:00,37.2,13.8,30.10,WSW,247,0.0,0.0,38,0.00,,,0.00,WUHU21623XXSP,2013-02-20 23:20:00,
2013-02-20 18:25:00,37.0,13.6,30.11,WSW,247,0.0,0.0,38,0.00,,,0.00,WUHU21623XXSP,2013-02-20 23:25:00,
2013-02-20 18:30:00,37.0,13.6,30.12,WSW,247,0.0,0.0,38,0.00,,,0.00,WUHU21623XXSP,2013-02-20 23:30:00,
2013-02-20 18:35:00,36.5,13.8,30.12,WSW,247,0.0,0.0,39,0.00,,,0.00,WUHU21623XXSP,2013-02-20 23:35:00,
2013-02-20 18:40:00,36.1,13.5,30.12,WSW,247,0.0,0.0,39,0.00,,,0.00,WUHU21623XXSP,2013-02-20 23:40:00,
2013-02-20 18:45:00,36.0,13.3,30.12,WSW,247,0.0,0.0,39,0.00,,,0.00,WUHU21623XXSP,2013-02-20 23:45:00,
2013-02-20 18:50:00,35.4,12.8,30.12,WSW,247,0.0,0.0,39,0.00,,,0.00,WUHU21623XXSP,2013-02-20 23:50:00,
2013-02-20 18:55:00,35.2,13.3,30.12,WSW,247,0.0,0.0,40,0.00,,,0.00,WUHU21623XXSP,2013-02-20 23:55:00,
2013-02-20 19:00:00,34.9,13.3,30.12,WSW,247,0.0,0.0,40,0.00,,,0.00,WUHU21623XXSP,2013-02-21 00:00:00,
2013-02-20 19:06:00,34.5,12.8,30.11,WSW,247,0.0,0.0,40,0.00,,,0.00,WUHU21623XXSP,2013-02-21 00:06:00,
2013-02-20 19:11:00,34.3,13.0,30.12,WSW,247,0.0,0.0,41,0.00,,,0.00,WUHU21623XXSP,2013-02-21 00:11:00,
2013-02-20 19:16:00,34.2,12.8,30.11,WSW,247,0.0,0.0,41,0.00,,,0.00,WUHU21623XXSP,2013-02-21 00:16:00,
2013-02-20 19:21:00,33.6,12.4,30.11,WSW,247,0.0,0.0,41,0.00,,,0.00,WUHU21623XXSP,2013-02-21 00:21:00,
2013-02-20 19:26:00,33.4,12.2,30.11,WSW,247,0.0,0.0,41,0.00,,,0.00,WUHU21623XXSP,2013-02-21 00:26:00,
2013-02-20 19:31:00,32.9,11.7,30.12,WSW,247,0.0,0.0,41,0.00,,,0.00,WUHU21623XXSP,2013-02-21 00:31:00,
2013-02-20 19:36:00,32.7,12.1,30.12,WSW,247,0.0,0.0,42,0.00,,,0.00,WUHU21623XXSP,2013-02-21 00:36:00,
2013-02-20 19:41:00,32.2,11.6,30.12,WSW,247,0.0,0.0,42,0.00,,,0.00,WUHU21623XXSP,2013-02-21 00:41:00,
2013-02-20 19:46:00,31.8,11.6,30.12,WSW,247,0.0,0.0,43,0.00,,,0.00,WUHU21623XXSP,2013-02-21 00:46:00,
2013-02-20 19:51:00,31.6,11.6,30.12,WSW,247,0.0,0.0,43,0.00,,,0.00,WUHU21623XXSP,2013-02-21 00:51:00,
2013-02-20 19:56:00,31.6,12.1,30.12,WSW,247,0.0,0.0,44,0.00,,,0.00,WUHU21623XXSP,2013-02-21 00:56:00,
2013-02-20 20:01:00,31.3,11.8,30.12,WSW,247,0.0,0.0,44,0.00,,,0.00,WUHU21623XXSP,2013-02-21 01:01:00,
2013-02-20 20:06:00,31.1,11.6,30.12,WSW,247,0.0,0.0,45,0.00,,,0.00,WUHU21623XXSP,2013-02-21 01:06:00,
2013-02-20 20:11:00,30.9,11.9,30.12,WSW,247,0.0,0.0,45,0.00,,,0.00,WUHU21623XXSP,2013-02-21 01:11:00,
2013-02-20 20:16:00,30.7,11.8,30.12,WSW,247,0.0,0.0,45,0.00,,,0.00,WUHU21623XXSP,2013-02-21 01:16:00,
2013-02-20 20:21:00,30.7,11.8,30.11,WSW,247,0.0,0.0,45,0.00,,,0.00,WUHU21623XXSP,2013-02-21 01:21:00,
2013-02-20 20:26:00,30.7,12.3,30.11,WSW,247,0.0,0.0,46,0.00,,,0.00,WUHU21623XXSP,2013-02-21 01:26:00,
2013-02-20 20:31:00,30.6,12.1,30.11,WSW,247,0.0,0.0,46,0.00,,,0.00,WUHU21623XXSP,2013-02-21 01:31:00,
2013-02-20 20:36:00,30.4,12.0,30.11,WSW,247,0.0,0.0,46,0.00,,,0.00,WUHU21623XXSP,2013-02-21 01:36:00,
2013-02-20 20:41:00,30.0,12.1,30.11,WSW,247,0.0,0.0,47,0.00,,,0.00,WUHU21623XXSP,2013-02-21 01:41:00,
2013-02-20 20:46:00,30.0,12.1,30.11,WSW,247,0.0,0.0,47,0.00,,,0.00,WUHU21623XXSP,2013-02-21 01:46:00,
2013-02-20 20:51:00,30.0,12.6,30.11,WSW,247,0.0,0.0,48,0.00,,,0.00,WUHU21623XXSP,2013-02-21 01:51:00,
2013-02-20 20:57:00,29.8,12.5,30.12,WSW,247,0.0,0.0,48,0.00,,,0.00,WUHU21623XXSP,2013-02-21 01:57:00,
2013-02-20 21:02:00,29.8,12.5,30.12,WSW,247,0.0,0.0,48,0.00,,,0.00,WUHU21623XXSP,2013-02-21 02:02:00,
2013-02-20 21:07:00,29.5,12.7,30.12,WSW,247,0.0,0.0,49,0.00,,,0.00,WUHU21623XXSP,2013-02-21 02:07:00,
2013-02-20 21:12:00,29.3,12.5,30.12,WSW,247,0.0,0.0,49,0.00,,,0.00,WUHU21623XXSP,2013-02-21 02:12:00,
2013-02-20 21:17:00,29.1,12.3,30.12,WSW,247,0.0,0.0,49,0.00,,,0.00,WUHU21623XXSP,2013-02-21 02:17:00,
2013-02-20 21:22:00,28.8,12.5,30.12,WSW,247,0.0,0.0,50,0.00,,,0.00,WUHU21623XXSP,2013-02-21 02:22:00,
2013-02-20 21:27:00,28.8,12.9,30.12,WSW,247,0.0,0.0,51,0.00,,,0.00,WUHU21623XXSP,2013-02-21 02:27:00,
2013-02-20 21:32:00,28.6,12.8,30.12,WSW,247,0.0,0.0,51,0.00,,,0.00,WUHU21623XXSP,2013-02-21 02:32:00,
2013-02-20 21:37:00,28.2,12.8,30.12,WSW,247,0.0,0.0,52,0.00,,,0.00,WUHU21623XXSP,2013-02-21 02:37:00,
2013-02-20 21:42:00,28.2,12.8,30.11,WSW,247,0.0,0.0,52,0.00,,,0.00,WUHU21623XXSP,2013-02-21 02:42:00,
2013-02-20 21:47:00,28.2,12.8,30.11,WSW,247,0.0,0.0,52,0.00,,,0.00,WUHU21623XXSP,2013-02-21 02:47:00,
2013-02-20 21:52:00,28.0,13.1,30.12,WSW,247,0.0,0.0,53,0.00,,,0.00,WUHU21623XXSP,2013-02-21 02:52:00,
2013-02-20 21:57:00,28.0,13.1,30.12,WSW,247,0.0,0.0,54,0.00,,,0.00,WUHU21623XXSP,2013-02-21 02:57:00,
2013-02-20 22:02:00,27.9,13.5,30.12,WSW,247,0.0,0.0,54,0.00,,,0.00,WUHU21623XXSP,2013-02-21 03:02:00,
2013-02-20 22:07:00,27.7,13.1,30.12,WSW,247,0.0,0.0,54,0.00,,,0.00,WUHU21623XXSP,2013-02-21 03:07:00,
2013-02-20 22:12:00,27.7,13.1,30.12,WSW,247,0.0,0.0,54,0.00,,,0.00,WUHU21623XXSP,2013-02-21 03:12:00,
2013-02-20 22:17:00,27.7,13.1,30.12,WSW,247,0.0,0.0,54,0.00,,,0.00,WUHU21623XXSP,2013-02-21 03:17:00,
2013-02-20 22:22:00,27.5,13.4,30.12,WSW,247,0.0,0.0,55,0.00,,,0.00,WUHU21623XXSP,2013-02-21 03:22:00,
2013-02-20 22:28:00,27.3,13.2,30.12,WSW,247,0.0,0.0,55,0.00,,,0.00,WUHU21623XXSP,2013-02-21 03:28:00,
2013-02-20 22:33:00,27.3,13.2,30.12,WSW,247,0.0,0.0,55,0.00,,,0.00,WUHU21623XXSP,2013-02-21 03:33:00,
2013-02-20 22:38:00,27.1,13.0,30.12,WSW,247,0.0,0.0,55,0.00,,,0.00,WUHU21623XXSP,2013-02-21 03:38:00,
2013-02-20 22:43:00,27.1,13.0,30.12,WSW,247,0.0,0.0,56,0.00,,,0.00,WUHU21623XXSP,2013-02-21 03:43:00,
2013-02-20 22:48:00,27.0,13.2,30.12,WSW,247,0.0,0.0,56,0.00,,,0.00,WUHU21623XXSP,2013-02-21 03:48:00,
2013-02-20 22:53:00,26.8,13.5,30.12,WSW,247,0.0,0.0,57,0.00,,,0.00,WUHU21623XXSP,2013-02-21 03:53:00,
2013-02-20 22:58:00,26.8,13.9,30.12,WSW,247,0.0,0.0,58,0.00,,,0.00,WUHU21623XXSP,2013-02-21 03:58:00,
2013-02-20 23:04:00,26.6,13.7,30.12,WSW,247,0.0,0.0,58,0.00,,,0.00,WUHU21623XXSP,2013-02-21 04:04:00,
2013-02-20 23:09:00,26.6,13.7,30.12,WSW,247,0.0,0.0,58,0.00,,,0.00,WUHU21623XXSP,2013-02-21 04:09:00,
2013-02-20 23:14:00,26.4,13.6,30.12,WSW,247,0.0,0.0,59,0.00,,,0.00,WUHU21623XXSP,2013-02-21 04:14:00,
2013-02-20 23:19:00,26.4,14.0,30.12,WSW,247,0.0,0.0,59,0.00,,,0.00,WUHU21623XXSP,2013-02-21 04:19:00,
2013-02-20 23:24:00,26.2,13.8,30.12,WSW,247,0.0,0.0,59,0.00,,,0.00,WUHU21623XXSP,2013-02-21 04:24:00,
2013-02-20 23:29:00,26.2,14.2,30.12,WSW,247,0.0,0.0,60,0.00,,,0.00,WUHU21623XXSP,2013-02-21 04:29:00,
2013-02-20 23:34:00,26.1,14.1,30.11,WSW,247,0.0,0.0,60,0.00,,,0.00,WUHU21623XXSP,2013-02-21 04:34:00,
2013-02-20 23:39:00,26.1,14.4,30.11,WSW,247,0.0,0.0,61,0.00,,,0.00,WUHU21623XXSP,2013-02-21 04:39:00,
2013-02-20 23:44:00,25.9,14.2,30.12,WSW,247,0.0,0.0,61,0.00,,,0.00,WUHU21623XXSP,2013-02-21 04:44:00,
2013-02-20 23:49:00,25.9,14.2,30.10,WSW,247,0.0,0.0,61,0.00,,,0.00,WUHU21623XXSP,2013-02-21 04:49:00,
2013-02-20 23:54:00,25.9,14.6,30.10,WSW,247,0.0,0.0,62,0.00,,,0.00,WUHU21623XXSP,2013-02-21 04:54:00,
2013-02-20 23:59:00,25.7,14.4,30.11,WSW,247,0.0,0.0,62,0.00,,,0.00,WUHU21623XXSP,2013-02-21 04:59:00,